createdAt,value
2018-07-02T00:00:31.336Z,98148.75
2018-07-02T00:03:00.464Z,98145.43
2018-07-02T00:05:46.520Z,98148.00
2018-07-02T00:08:15.662Z,98146.96
2018-07-02T00:10:44.823Z,98142.25
2018-07-02T00:13:13.963Z,98141.51
2018-07-02T00:15:43.095Z,98140.36
2018-07-02T00:18:12.269Z,98131.44
2018-07-02T00:20:41.411Z,98136.66
2018-07-02T00:23:10.547Z,98144.73
2018-07-02T00:25:39.696Z,98135.88
2018-07-02T00:28:08.844Z,98139.00
2018-07-02T00:30:37.985Z,98137.83
2018-07-02T00:33:07.134Z,98136.23
2018-07-02T00:35:36.269Z,98135.38
2018-07-02T00:38:05.439Z,98129.03
2018-07-02T00:40:34.579Z,98136.78
2018-07-02T00:43:03.749Z,98131.36
2018-07-02T00:45:32.879Z,98125.64
2018-07-02T00:48:02.020Z,98122.22
2018-07-02T00:50:31.176Z,98121.67
2018-07-02T00:53:00.318Z,98118.05
2018-07-02T00:55:29.462Z,98117.61
2018-07-02T00:57:58.599Z,98116.33
2018-07-02T01:00:27.757Z,98118.11
2018-07-02T01:02:56.886Z,98117.39
2018-07-02T01:05:26.030Z,98116.20
2018-07-02T01:07:55.178Z,98118.70
2018-07-02T01:10:24.340Z,98125.02
2018-07-02T01:12:53.479Z,98125.17
2018-07-02T01:15:22.614Z,98131.20
2018-07-02T01:17:51.764Z,98133.78
2018-07-02T01:20:20.908Z,98132.52
2018-07-02T01:22:50.052Z,98130.45
2018-07-02T01:25:19.202Z,98130.08
2018-07-02T01:27:48.343Z,98129.67
2018-07-02T01:30:17.485Z,98129.67
2018-07-02T01:32:46.614Z,98126.79
2018-07-02T01:35:15.772Z,98134.91
2018-07-02T01:37:44.921Z,98134.09
2018-07-02T01:40:14.061Z,98126.53
2018-07-02T01:42:43.208Z,98129.09
2018-07-02T01:45:12.362Z,98129.53
2018-07-02T01:47:41.500Z,98135.92
2018-07-02T01:50:10.665Z,98131.80
2018-07-02T01:52:39.806Z,98130.97
2018-07-02T01:55:08.952Z,98130.97
2018-07-02T01:57:38.091Z,98128.42
2018-07-02T02:00:07.252Z,98128.51
2018-07-02T02:02:36.404Z,98124.69
2018-07-02T02:05:05.595Z,98128.07
2018-07-02T02:07:34.732Z,98123.50
2018-07-02T02:10:03.888Z,98119.69
2018-07-02T02:12:33.003Z,98122.23
2018-07-02T02:15:02.117Z,98120.28
2018-07-02T02:17:31.248Z,98116.95
2018-07-02T02:20:00.369Z,98116.63
2018-07-02T02:22:29.500Z,98118.41
2018-07-02T02:24:58.623Z,98118.11
2018-07-02T02:27:27.739Z,98114.80
2018-07-02T02:29:56.956Z,98111.52
2018-07-02T02:32:26.079Z,98111.55
2018-07-02T02:34:55.201Z,98116.17
2018-07-02T02:37:24.342Z,98113.69
2018-07-02T02:39:53.481Z,98113.76
2018-07-02T02:42:22.605Z,98106.50
2018-07-02T02:44:51.740Z,98114.47
2018-07-02T02:47:20.856Z,98113.66
2018-07-02T02:49:49.982Z,98118.74
2018-07-02T02:52:19.120Z,98122.98
2018-07-02T02:54:48.228Z,98118.31
2018-07-02T02:57:17.375Z,98117.41
2018-07-02T02:59:46.491Z,98119.89
2018-07-02T03:02:15.620Z,98119.89
2018-07-02T03:04:44.739Z,98121.16
2018-07-02T03:07:13.879Z,98119.98
2018-07-02T03:09:42.997Z,98122.48
2018-07-02T03:12:12.132Z,98128.91
2018-07-02T03:14:41.264Z,98116.23
2018-07-02T03:17:10.400Z,98117.47
2018-07-02T03:19:39.524Z,98114.06
2018-07-02T03:22:08.859Z,98109.81
2018-07-02T03:24:37.926Z,98111.13
2018-07-02T03:27:07.039Z,98123.45
2018-07-02T03:29:36.179Z,98128.97
2018-07-02T03:32:05.308Z,98123.95
2018-07-02T03:34:34.418Z,98123.95
2018-07-02T03:37:03.543Z,98129.00
2018-07-02T03:39:32.662Z,98131.59
2018-07-02T03:42:01.762Z,98135.35
2018-07-02T03:44:30.883Z,98135.31
2018-07-02T03:47:00.001Z,98129.40
2018-07-02T03:49:29.128Z,98128.07
2018-07-02T03:51:58.265Z,98122.16
2018-07-02T03:54:27.376Z,98122.19
2018-07-02T03:56:56.497Z,98116.23
2018-07-02T03:59:25.639Z,98125.53
2018-07-02T04:01:54.784Z,98125.53
2018-07-02T04:04:23.898Z,98113.63
2018-07-02T04:06:53.010Z,98114.44
2018-07-02T04:09:22.167Z,98119.02
2018-07-02T04:11:51.310Z,98119.78
2018-07-02T04:14:20.455Z,98124.43
2018-07-02T04:16:49.595Z,98115.90
2018-07-02T04:19:18.735Z,98113.32
2018-07-02T04:21:47.888Z,98125.02
2018-07-02T04:24:17.031Z,98129.27
2018-07-02T04:26:46.173Z,98133.08
2018-07-02T04:29:15.326Z,98129.19
2018-07-02T04:31:44.647Z,98128.75
2018-07-02T04:34:13.816Z,98139.76
2018-07-02T04:36:42.946Z,98139.08
2018-07-02T04:39:12.100Z,98147.23
2018-07-02T04:41:41.259Z,98139.52
2018-07-02T04:44:10.400Z,98147.16
2018-07-02T04:46:39.584Z,98145.36
2018-07-02T04:49:08.723Z,98151.59
2018-07-02T04:51:37.867Z,98155.33
2018-07-02T04:54:07.024Z,98151.75
2018-07-02T04:56:36.167Z,98150.87
2018-07-02T04:59:05.371Z,98148.39
2018-07-02T05:01:34.504Z,98143.92
2018-07-02T05:04:03.619Z,98143.59
2018-07-02T05:06:32.748Z,98141.20
2018-07-02T05:09:01.842Z,98142.48
2018-07-02T05:11:31.048Z,98142.49
2018-07-02T05:14:00.165Z,98139.14
2018-07-02T05:16:29.276Z,98146.63
2018-07-02T05:18:58.391Z,98142.31
2018-07-02T05:21:27.505Z,98146.03
2018-07-02T05:23:56.618Z,98152.32
2018-07-02T05:26:25.744Z,98152.20
2018-07-02T05:28:55.017Z,98147.91
2018-07-02T05:31:24.232Z,98140.97
2018-07-02T05:33:53.280Z,98135.52
2018-07-02T05:36:22.387Z,98144.80
2018-07-02T05:38:51.520Z,98142.18
2018-07-02T05:41:20.664Z,98138.79
2018-07-02T05:43:49.783Z,98133.48
2018-07-02T05:46:18.887Z,98141.84
2018-07-02T05:48:48.312Z,98152.70
2018-07-02T05:51:17.449Z,98140.66
2018-07-02T05:53:46.562Z,98146.05
2018-07-02T05:56:15.670Z,98146.33
2018-07-02T05:58:44.797Z,98136.05
2018-07-02T06:01:13.891Z,98132.53
2018-07-02T06:03:43.002Z,98138.02
2018-07-02T06:06:12.116Z,98137.52
2018-07-02T06:08:41.236Z,98129.66
2018-07-02T06:11:10.343Z,98128.33
2018-07-02T06:13:39.480Z,98127.67
2018-07-02T06:16:08.589Z,98123.31
2018-07-02T06:18:37.712Z,98130.66
2018-07-02T06:21:09.808Z,98137.23
2018-07-02T06:23:38.939Z,98141.67
2018-07-02T06:26:08.057Z,98134.54
2018-07-02T06:28:37.178Z,98131.06
2018-07-02T06:31:06.305Z,98131.31
2018-07-02T06:33:35.430Z,98133.17
2018-07-02T06:36:04.553Z,98137.59
2018-07-02T06:38:33.672Z,98133.06
2018-07-02T06:41:02.792Z,98134.69
2018-07-02T06:43:31.917Z,98131.09
2018-07-02T06:46:01.040Z,98129.97
2018-07-02T06:48:30.201Z,98132.02
2018-07-02T06:50:59.333Z,98136.41
2018-07-02T06:53:28.478Z,98138.02
2018-07-02T06:55:57.602Z,98131.34
2018-07-02T06:58:26.753Z,98135.30
2018-07-02T07:00:55.911Z,98136.94
2018-07-02T07:03:25.016Z,98128.01
2018-07-02T07:05:54.185Z,98129.86
2018-07-02T07:08:23.322Z,98134.98
2018-07-02T07:10:52.450Z,98141.11
2018-07-02T07:13:21.566Z,98138.20
2018-07-02T07:15:50.702Z,98131.47
2018-07-02T07:18:19.829Z,98134.06
2018-07-02T07:20:48.955Z,98140.92
2018-07-02T07:23:18.076Z,98141.92
2018-07-02T07:25:47.223Z,98142.13
2018-07-02T07:28:16.315Z,98141.86
2018-07-02T07:30:45.581Z,98139.00
2018-07-02T07:33:14.663Z,98134.10
2018-07-02T07:35:43.796Z,98131.30
2018-07-02T07:38:12.910Z,98133.46
2018-07-02T07:40:42.040Z,98131.67
2018-07-02T07:43:11.160Z,98134.91
2018-07-02T07:45:40.280Z,98126.87
2018-07-02T07:48:09.445Z,98123.50
2018-07-02T07:50:38.566Z,98136.92
2018-07-02T07:53:07.752Z,98130.15
2018-07-02T07:55:36.828Z,98133.59
2018-07-02T07:58:06.024Z,98130.98
2018-07-02T08:00:35.142Z,98140.59
2018-07-02T08:03:04.277Z,98141.98
2018-07-02T08:05:33.404Z,98139.55
2018-07-02T08:08:02.559Z,98134.10
2018-07-02T08:10:31.720Z,98141.09
2018-07-02T08:13:00.852Z,98137.34
2018-07-02T08:15:29.999Z,98137.42
2018-07-02T08:17:59.157Z,98132.20
2018-07-02T08:20:28.320Z,98124.67
2018-07-02T08:22:57.468Z,98123.84
2018-07-02T08:25:26.638Z,98126.02
2018-07-02T08:27:55.884Z,98130.19
2018-07-02T08:30:25.037Z,98127.66
2018-07-02T08:32:54.226Z,98128.70
2018-07-02T08:35:23.347Z,98129.48
2018-07-02T08:37:52.503Z,98132.84
2018-07-02T08:40:21.719Z,98116.22
2018-07-02T08:42:50.858Z,98118.41
2018-07-02T08:45:19.995Z,98117.91
2018-07-02T08:47:49.141Z,98128.28
2018-07-02T08:50:18.307Z,98126.91
2018-07-02T08:52:47.487Z,98122.68
2018-07-02T08:55:16.624Z,98117.10
2018-07-02T08:57:45.788Z,98114.11
2018-07-02T09:00:14.926Z,98116.02
2018-07-02T09:02:44.076Z,98116.72
2018-07-02T09:05:13.211Z,98110.44
2018-07-02T09:07:42.351Z,98106.47
2018-07-02T09:10:11.475Z,98113.70
2018-07-02T09:12:40.603Z,98111.37
2018-07-02T09:15:09.715Z,98110.16
2018-07-02T09:17:38.903Z,98104.45
2018-07-02T09:20:07.973Z,98099.17
2018-07-02T09:22:37.299Z,98104.95
2018-07-02T09:25:06.411Z,98101.17
2018-07-02T09:27:35.540Z,98104.33
2018-07-02T09:30:05.058Z,98095.33
2018-07-02T09:32:34.199Z,98094.59
2018-07-02T09:35:03.301Z,98093.66
2018-07-02T09:37:32.435Z,98093.83
2018-07-02T09:40:01.569Z,98091.91
2018-07-02T09:42:30.701Z,98083.41
2018-07-02T09:44:59.850Z,98090.07
2018-07-02T09:47:29.050Z,98088.83
2018-07-02T09:49:58.163Z,98091.77
2018-07-02T09:52:27.276Z,98087.13
2018-07-02T09:54:56.405Z,98084.68
2018-07-02T09:57:25.529Z,98084.11
2018-07-02T09:59:54.679Z,98077.66
2018-07-02T10:02:23.824Z,98078.83
2018-07-02T10:04:53.362Z,98080.63
2018-07-02T10:07:22.519Z,98070.25
2018-07-02T10:09:51.667Z,98073.00
2018-07-02T10:12:20.807Z,98070.59
2018-07-02T10:14:50.769Z,98063.08
2018-07-02T10:17:19.884Z,98082.46
2018-07-02T10:19:49.026Z,98074.55
2018-07-02T10:22:18.133Z,98076.15
2018-07-02T10:24:47.252Z,98074.27
2018-07-02T10:27:16.402Z,98071.30
2018-07-02T10:29:45.541Z,98058.04
2018-07-02T10:32:14.672Z,98059.98
2018-07-02T10:34:43.829Z,98062.11
2018-07-02T10:37:12.917Z,98067.67
2018-07-02T10:39:42.058Z,98062.62
2018-07-02T10:42:11.176Z,98061.91
2018-07-02T10:44:40.291Z,98064.38
2018-07-02T10:47:09.406Z,98068.94
2018-07-02T10:49:38.566Z,98070.21
2018-07-02T10:52:07.680Z,98076.31
2018-07-02T10:54:36.815Z,98082.06
2018-07-02T10:57:05.934Z,98074.72
2018-07-02T10:59:35.089Z,98072.59
2018-07-02T11:02:04.225Z,98070.48
2018-07-02T11:04:33.374Z,98071.19
2018-07-02T11:07:02.516Z,98072.06
2018-07-02T11:09:31.634Z,98067.39
2018-07-02T11:12:00.761Z,98066.56
2018-07-02T11:14:29.879Z,98062.20
2018-07-02T11:16:59.009Z,98070.44
2018-07-02T11:19:28.495Z,98055.38
2018-07-02T11:21:57.634Z,98071.19
2018-07-02T11:24:26.747Z,98064.75
2018-07-02T11:26:55.865Z,98057.58
2018-07-02T11:29:24.970Z,98051.56
2018-07-02T11:31:54.089Z,98050.12
2018-07-02T11:34:23.194Z,98042.52
2018-07-02T11:36:52.311Z,98039.02
2018-07-02T11:39:21.418Z,98040.10
2018-07-02T11:41:50.538Z,98041.00
2018-07-02T11:44:19.664Z,98035.98
2018-07-02T11:46:48.798Z,98026.25
2018-07-02T11:49:17.910Z,98024.34
2018-07-02T11:51:47.024Z,98018.77
2018-07-02T11:54:16.137Z,98011.79
2018-07-02T11:56:45.281Z,98011.64
2018-07-02T11:59:14.464Z,98006.19
2018-07-02T12:01:43.588Z,98015.02
2018-07-02T12:04:12.762Z,98016.22
2018-07-02T12:06:41.850Z,98023.58
2018-07-02T12:09:11.845Z,98020.58
2018-07-02T12:11:41.273Z,98022.14
2018-07-02T12:14:10.392Z,98019.23
2018-07-02T12:16:39.513Z,98012.77
2018-07-02T12:19:08.641Z,98014.33
2018-07-02T12:21:37.752Z,98009.47
2018-07-02T12:24:06.872Z,98014.64
2018-07-02T12:26:35.975Z,98015.25
2018-07-02T12:29:05.100Z,98014.70
2018-07-02T12:31:34.208Z,98018.67
2018-07-02T12:34:03.333Z,98022.82
2018-07-02T12:36:32.430Z,98015.45
2018-07-02T12:39:01.555Z,98008.69
2018-07-02T12:41:30.677Z,98011.66
2018-07-02T12:43:59.792Z,98009.27
2018-07-02T12:46:28.905Z,98022.34
2018-07-02T12:48:58.028Z,98005.88
2018-07-02T12:51:27.167Z,98012.91
2018-07-02T12:53:56.284Z,98013.13
2018-07-02T12:56:25.423Z,98010.98
2018-07-02T12:58:54.572Z,98014.55
2018-07-02T13:01:23.700Z,98008.03
2018-07-02T13:03:52.822Z,98004.75
2018-07-02T13:06:21.933Z,98006.96
2018-07-02T13:08:51.100Z,98005.24
2018-07-02T13:11:20.231Z,97997.58
2018-07-02T13:13:49.380Z,98002.52
2018-07-02T13:16:18.526Z,97998.84
2018-07-02T13:18:47.643Z,98002.20
2018-07-02T13:21:16.788Z,98001.16
2018-07-02T13:23:45.935Z,97997.02
2018-07-02T13:26:15.081Z,98002.44
2018-07-02T13:28:44.224Z,97988.91
2018-07-02T13:31:13.368Z,97990.07
2018-07-02T13:33:42.511Z,97988.30
2018-07-02T13:36:11.695Z,97993.50
2018-07-02T13:38:40.795Z,97999.38
2018-07-02T13:41:09.939Z,97995.85
2018-07-02T13:43:39.071Z,97997.95
2018-07-02T13:46:08.245Z,97989.95
2018-07-02T13:48:37.370Z,97985.59
2018-07-02T13:51:06.557Z,97981.00
2018-07-02T13:53:35.674Z,97982.37
2018-07-02T13:56:04.828Z,97984.36
2018-07-02T13:58:33.961Z,97979.63
2018-07-02T14:01:03.105Z,97973.72
2018-07-02T14:03:32.238Z,97976.13
2018-07-02T14:06:01.404Z,97978.66
2018-07-02T14:08:30.551Z,97973.41
2018-07-02T14:10:59.696Z,97970.81
2018-07-02T14:13:28.841Z,97973.72
2018-07-02T14:15:57.985Z,97971.08
2018-07-02T14:18:27.133Z,97964.56
2018-07-02T14:20:56.266Z,97961.13
2018-07-02T14:23:25.419Z,97971.78
2018-07-02T14:25:54.543Z,97972.77
2018-07-02T14:28:23.699Z,97961.91
2018-07-02T14:30:52.840Z,97954.91
2018-07-02T14:33:21.987Z,97957.23
2018-07-02T14:35:51.125Z,97961.13
2018-07-02T14:38:20.269Z,97951.28
2018-07-02T14:40:49.406Z,97953.05
2018-07-02T14:43:18.561Z,97941.66
2018-07-02T14:45:47.697Z,97946.75
2018-07-02T14:48:16.849Z,97939.90
2018-07-02T14:50:45.981Z,97940.48
2018-07-02T14:53:15.114Z,97930.73
2018-07-02T14:55:44.257Z,97935.64
2018-07-02T14:58:13.388Z,97931.00
2018-07-02T15:00:42.527Z,97935.13
2018-07-02T15:03:11.664Z,97942.66
2018-07-02T15:05:40.833Z,97933.52
2018-07-02T15:08:09.976Z,97932.09
2018-07-02T15:10:39.113Z,97930.50
2018-07-02T15:13:08.251Z,97935.17
2018-07-02T15:15:37.412Z,97927.98
2018-07-02T15:18:06.620Z,97927.87
2018-07-02T15:20:35.724Z,97921.33
2018-07-02T15:23:04.907Z,97921.16
2018-07-02T15:25:34.008Z,97917.09
2018-07-02T15:28:03.143Z,97917.87
2018-07-02T15:30:32.286Z,97908.84
2018-07-02T15:33:01.416Z,97915.33
2018-07-02T15:35:30.570Z,97919.01
2018-07-02T15:37:59.721Z,97915.63
2018-07-02T15:40:29.088Z,97917.98
2018-07-02T15:42:58.223Z,97920.92
2018-07-02T15:45:27.370Z,97917.27
2018-07-02T15:47:56.512Z,97919.47
2018-07-02T15:50:25.650Z,97921.59
2018-07-02T15:52:55.423Z,97919.59
2018-07-02T15:55:24.772Z,97927.44
2018-07-02T15:57:53.710Z,97925.19
2018-07-02T16:00:22.840Z,97921.38
2018-07-02T16:02:51.980Z,97917.70
2018-07-02T16:05:21.124Z,97919.48
2018-07-02T16:07:50.267Z,97916.19
2018-07-02T16:10:19.417Z,97911.36
2018-07-02T16:12:48.559Z,97919.34
2018-07-02T16:15:17.705Z,97911.38
2018-07-02T16:17:46.864Z,97914.80
2018-07-02T16:20:16.016Z,97921.95
2018-07-02T16:22:45.194Z,97922.21
2018-07-02T16:25:14.343Z,97918.08
2018-07-02T16:27:43.489Z,97916.52
2018-07-02T16:30:12.641Z,97916.24
2018-07-02T16:32:41.783Z,97915.13
2018-07-02T16:35:10.936Z,97917.69
2018-07-02T16:37:40.068Z,97913.44
2018-07-02T16:40:09.217Z,97917.20
2018-07-02T16:42:38.374Z,97914.83
2018-07-02T16:45:07.520Z,97915.92
2018-07-02T16:47:36.671Z,97911.14
2018-07-02T16:50:06.404Z,97908.77
2018-07-02T16:52:35.684Z,97913.55
2018-07-02T16:55:04.827Z,97916.52
2018-07-02T16:57:33.980Z,97919.45
2018-07-02T17:00:03.118Z,97919.66
2018-07-02T17:02:32.282Z,97915.03
2018-07-02T17:05:01.444Z,97913.83
2018-07-02T17:07:30.679Z,97914.14
2018-07-02T17:09:59.824Z,97911.22
2018-07-02T17:12:28.987Z,97909.92
2018-07-02T17:14:58.146Z,97914.87
2018-07-02T17:17:27.309Z,97915.39
2018-07-02T17:19:56.452Z,97919.91
2018-07-02T17:22:25.650Z,97913.48
2018-07-02T17:24:54.757Z,97921.17
2018-07-02T17:27:23.902Z,97910.74
2018-07-02T17:29:53.044Z,97916.97
2018-07-02T17:32:22.197Z,97920.70
2018-07-02T17:34:51.332Z,97918.39
2018-07-02T17:37:20.546Z,97918.39
2018-07-02T17:39:49.713Z,97920.88
2018-07-02T17:42:18.854Z,97921.84
2018-07-02T17:44:47.992Z,97921.03
2018-07-02T17:47:17.154Z,97918.46
2018-07-02T17:49:46.308Z,97920.47
2018-07-02T17:52:15.460Z,97917.55
2018-07-02T17:54:44.608Z,97925.88
2018-07-02T17:57:13.792Z,97927.42
2018-07-02T17:59:42.971Z,97924.27
2018-07-02T18:02:12.109Z,97923.54
2018-07-02T18:04:41.264Z,97924.94
2018-07-02T18:07:10.419Z,97923.05
2018-07-02T18:09:39.538Z,97924.76
2018-07-02T18:12:08.674Z,97920.70
2018-07-02T18:14:37.799Z,97928.75
2018-07-02T18:17:07.023Z,97929.55
2018-07-02T18:19:36.137Z,97932.36
2018-07-02T18:22:05.407Z,97935.75
2018-07-02T18:24:34.535Z,97936.28
2018-07-02T18:27:03.672Z,97934.36
2018-07-02T18:29:32.798Z,97939.95
2018-07-02T18:32:01.924Z,97948.52
2018-07-02T18:34:31.049Z,97947.14
2018-07-02T18:37:00.157Z,97951.19
2018-07-02T18:39:29.275Z,97951.02
2018-07-02T18:41:58.409Z,97948.84
2018-07-02T18:44:27.535Z,97941.48
2018-07-02T18:46:56.674Z,97941.99
2018-07-02T18:49:25.835Z,97946.30
2018-07-02T18:51:54.986Z,97949.01
2018-07-02T18:54:24.086Z,97947.44
2018-07-02T18:56:53.206Z,97951.02
2018-07-02T18:59:22.353Z,97956.01
2018-07-02T19:01:51.522Z,97950.55
2018-07-02T19:04:20.674Z,97951.88
2018-07-02T19:06:49.841Z,97947.41
2018-07-02T19:09:18.967Z,97950.95
2018-07-02T19:11:48.102Z,97949.64
2018-07-02T19:14:17.240Z,97948.97
2018-07-02T19:16:46.439Z,97948.23
2018-07-02T19:19:15.532Z,97951.58
2018-07-02T19:21:44.651Z,97952.06
2018-07-02T19:24:13.776Z,97954.33
2018-07-02T19:26:42.902Z,97953.91
2018-07-02T19:29:14.052Z,97959.15
2018-07-02T19:31:43.231Z,97967.31
2018-07-02T19:34:12.351Z,97970.75
2018-07-02T19:36:41.475Z,97972.55
2018-07-02T19:39:12.609Z,97975.49
2018-07-02T19:41:41.731Z,97981.16
2018-07-02T19:44:11.431Z,97986.70
2018-07-02T19:46:40.679Z,97987.75
2018-07-02T19:49:09.810Z,97987.37
2018-07-02T19:51:38.965Z,97991.06
2018-07-02T19:54:08.110Z,97987.03
2018-07-02T19:56:37.309Z,97994.63
2018-07-02T19:59:06.351Z,97994.73
2018-07-02T20:01:35.483Z,97998.45
2018-07-02T20:04:04.716Z,97996.95
2018-07-02T20:06:33.876Z,97998.88
2018-07-02T20:09:03.025Z,97997.04
2018-07-02T20:11:32.167Z,97995.52
2018-07-02T20:14:01.331Z,98002.52
2018-07-02T20:16:30.483Z,98009.59
2018-07-02T20:18:59.768Z,98017.44
2018-07-02T20:21:28.865Z,98019.83
2018-07-02T20:23:58.078Z,98015.14
2018-07-02T20:26:27.258Z,98011.15
2018-07-02T20:28:56.468Z,98015.00
2018-07-02T20:31:25.631Z,98022.21
2018-07-02T20:33:54.805Z,98019.02
2018-07-02T20:36:24.048Z,98021.08
2018-07-02T20:38:53.232Z,98025.69
2018-07-02T20:41:22.423Z,98029.95
2018-07-02T20:43:51.624Z,98037.40
2018-07-02T20:46:20.766Z,98044.08
2018-07-02T20:48:49.922Z,98044.05
2018-07-02T20:51:19.063Z,98051.02
2018-07-02T20:53:48.265Z,98048.14
2018-07-02T20:56:17.460Z,98055.14
2018-07-02T20:58:46.608Z,98062.27
2018-07-02T21:01:15.868Z,98063.02
2018-07-02T21:03:45.023Z,98061.82
2018-07-02T21:06:14.188Z,98061.41
2018-07-02T21:08:43.351Z,98067.41
2018-07-02T21:11:12.495Z,98066.13
2018-07-02T21:13:41.647Z,98069.73
2018-07-02T21:16:10.829Z,98065.84
2018-07-02T21:18:40.016Z,98075.63
2018-07-02T21:21:09.182Z,98070.07
2018-07-02T21:23:38.471Z,98080.48
2018-07-02T21:26:07.612Z,98080.72
2018-07-02T21:28:36.773Z,98082.30
2018-07-02T21:31:05.919Z,98088.84
2018-07-02T21:33:35.094Z,98098.55
2018-07-02T21:36:05.021Z,98099.38
2018-07-02T21:38:34.159Z,98110.16
2018-07-02T21:41:03.486Z,98106.27
2018-07-02T21:43:32.699Z,98104.15
2018-07-02T21:46:01.883Z,98105.35
2018-07-02T21:48:31.196Z,98112.02
2018-07-02T21:51:00.344Z,98114.62
2018-07-02T21:53:29.492Z,98119.88
2018-07-02T21:55:58.646Z,98114.50
2018-07-02T21:58:27.794Z,98115.45
2018-07-02T22:00:57.014Z,98118.08
2018-07-02T22:03:26.214Z,98116.55
2018-07-02T22:05:55.509Z,98123.28
2018-07-02T22:08:24.701Z,98120.55
2018-07-02T22:10:53.863Z,98120.11
2018-07-02T22:13:23.010Z,98116.26
2018-07-02T22:15:52.247Z,98127.21
2018-07-02T22:18:21.388Z,98132.73
2018-07-02T22:20:50.557Z,98129.83
2018-07-02T22:23:19.703Z,98130.72
2018-07-02T22:25:48.865Z,98131.67
2018-07-02T22:28:18.007Z,98130.65
2018-07-02T22:30:47.147Z,98132.62
2018-07-02T22:33:16.294Z,98138.53
2018-07-02T22:35:45.448Z,98134.83
2018-07-02T22:38:14.599Z,98140.73
2018-07-02T22:40:43.753Z,98136.14
2018-07-02T22:43:12.899Z,98137.62
2018-07-02T22:45:42.038Z,98131.87
2018-07-02T22:48:11.182Z,98140.98
2018-07-02T22:50:40.322Z,98136.52
2018-07-02T22:53:09.482Z,98135.39
2018-07-02T22:55:55.568Z,98135.91
2018-07-02T22:58:24.748Z,98135.49
2018-07-02T23:00:53.885Z,98130.12
2018-07-02T23:03:23.054Z,98135.80
2018-07-02T23:05:52.247Z,98127.31
2018-07-02T23:08:21.409Z,98139.64
2018-07-02T23:10:50.577Z,98138.66
2018-07-02T23:13:19.718Z,98141.30
2018-07-02T23:15:48.899Z,98139.19
2018-07-02T23:18:18.051Z,98140.38
2018-07-02T23:20:47.190Z,98142.16
2018-07-02T23:23:16.364Z,98147.67
2018-07-02T23:25:45.506Z,98146.62
2018-07-02T23:28:14.643Z,98143.67
2018-07-02T23:30:43.795Z,98140.89
2018-07-02T23:33:12.964Z,98150.35
2018-07-02T23:35:42.116Z,98148.78
2018-07-02T23:38:11.298Z,98146.31
2018-07-02T23:40:40.430Z,98148.25
2018-07-02T23:43:09.576Z,98149.27
2018-07-02T23:45:38.750Z,98151.05
2018-07-02T23:48:07.916Z,98143.72
2018-07-02T23:50:37.051Z,98144.27
2018-07-02T23:53:06.216Z,98142.59
2018-07-02T23:55:35.372Z,98148.58
2018-07-02T23:58:04.687Z,98150.50
